createdAt,value
2017-12-22T00:05:05.029Z,0
2017-12-22T00:14:53.521Z,0
2017-12-22T00:15:43.956Z,0
2017-12-22T00:16:33.630Z,0
2017-12-22T00:17:23.254Z,0
2017-12-22T00:18:10.892Z,0
2017-12-22T00:21:55.159Z,0
2017-12-22T00:22:43.606Z,0
2017-12-22T00:23:32.430Z,0
2017-12-22T00:24:21.024Z,0
2017-12-22T00:25:11.816Z,0
2017-12-22T00:28:57.148Z,0
2017-12-22T00:29:46.052Z,0
2017-12-22T00:30:34.412Z,0
2017-12-22T00:31:22.866Z,0
2017-12-22T00:32:13.318Z,0
2017-12-22T00:46:00.617Z,0
2017-12-22T00:46:40.865Z,0
2017-12-22T00:47:21.216Z,0
2017-12-22T00:48:01.782Z,0
2017-12-22T00:48:45.221Z,0
2017-12-22T00:49:35.784Z,0
2017-12-22T00:50:25.913Z,0
2017-12-22T00:51:21.409Z,0
2017-12-22T00:52:04.125Z,0
2017-12-22T00:52:44.666Z,0
2017-12-22T00:53:31.959Z,0
2017-12-22T01:02:06.958Z,0
2017-12-22T01:16:58.871Z,0
2017-12-22T01:18:40.403Z,0
2017-12-22T01:19:32.245Z,0
2017-12-22T01:31:59.044Z,0
2017-12-22T01:32:50.034Z,0
2017-12-22T01:35:49.372Z,0
2017-12-22T01:36:38.124Z,0
2017-12-22T01:37:26.784Z,0
2017-12-22T01:38:15.310Z,0
2017-12-22T01:39:03.955Z,0
2017-12-22T01:42:11.624Z,0
2017-12-22T01:44:16.797Z,0
2017-12-22T01:48:59.146Z,0
2017-12-22T01:52:39.643Z,0
2017-12-22T01:53:29.034Z,0
2017-12-22T01:54:20.758Z,0
2017-12-22T01:55:14.918Z,0
2017-12-22T02:02:51.888Z,0
2017-12-22T02:04:52.802Z,0
2017-12-22T02:19:39.889Z,0
2017-12-22T02:44:17.912Z,0
2017-12-22T02:44:58.114Z,0
2017-12-22T02:45:38.615Z,0
2017-12-22T02:46:18.929Z,0
2017-12-22T02:46:59.314Z,0
2017-12-22T02:47:39.737Z,0
2017-12-22T02:48:20.186Z,0
2017-12-22T02:49:00.545Z,0
2017-12-22T02:49:40.998Z,0
2017-12-22T02:50:21.343Z,0
2017-12-22T02:51:01.815Z,0
2017-12-22T02:51:42.165Z,0
2017-12-22T02:52:22.616Z,0
2017-12-22T02:53:03.056Z,0
2017-12-22T02:53:43.405Z,0
2017-12-22T02:54:23.821Z,0
2017-12-22T02:55:04.135Z,0
2017-12-22T02:55:44.575Z,0
2017-12-22T02:56:24.942Z,0
2017-12-22T02:57:05.369Z,0
2017-12-22T02:57:45.772Z,0
2017-12-22T02:58:26.190Z,0
2017-12-22T02:59:06.625Z,0
2017-12-22T02:59:47.042Z,0
2017-12-22T03:00:27.650Z,0
2017-12-22T03:01:08.105Z,0
2017-12-22T03:01:48.530Z,0
2017-12-22T03:02:29.105Z,0
2017-12-22T03:03:09.327Z,0
2017-12-22T03:03:49.683Z,0
2017-12-22T03:04:30.139Z,0
2017-12-22T03:05:10.541Z,0
2017-12-22T03:05:50.902Z,0
2017-12-22T03:06:31.326Z,0
2017-12-22T03:07:11.645Z,0
2017-12-22T03:07:52.156Z,0
2017-12-22T03:08:32.525Z,0
2017-12-22T03:09:12.922Z,0
2017-12-22T03:09:53.293Z,0
2017-12-22T03:10:33.718Z,0
2017-12-22T03:11:14.123Z,0
2017-12-22T03:11:54.561Z,0
2017-12-22T03:12:35.245Z,0
2017-12-22T03:13:15.675Z,0
2017-12-22T03:13:56.120Z,0
2017-12-22T03:14:37.012Z,0
2017-12-22T03:15:17.402Z,0
2017-12-22T03:15:57.738Z,0
2017-12-22T03:16:38.178Z,0
2017-12-22T03:17:18.567Z,0
2017-12-22T03:17:59.032Z,0
2017-12-22T03:18:39.400Z,0
2017-12-22T03:19:19.871Z,0
2017-12-22T03:20:00.260Z,0
2017-12-22T03:20:40.646Z,0
2017-12-22T03:21:21.218Z,0
2017-12-22T03:22:01.609Z,0
2017-12-22T03:22:42.228Z,0
2017-12-22T03:23:22.446Z,0
2017-12-22T03:24:02.953Z,0
2017-12-22T03:24:43.308Z,0
2017-12-22T03:25:23.657Z,0
2017-12-22T03:26:04.096Z,0
2017-12-22T03:26:44.509Z,0
2017-12-22T03:27:27.482Z,0
2017-12-22T03:28:07.848Z,0
2017-12-22T03:28:48.279Z,0
2017-12-22T03:29:28.750Z,0
2017-12-22T03:30:09.118Z,0
2017-12-22T03:30:52.494Z,0
2017-12-22T03:31:33.047Z,0
2017-12-22T03:32:13.501Z,0
2017-12-22T03:32:53.822Z,0
2017-12-22T03:33:34.275Z,0
2017-12-22T03:34:14.693Z,0
2017-12-22T03:34:55.115Z,0
2017-12-22T03:35:35.499Z,0
2017-12-22T03:36:15.943Z,0
2017-12-22T03:36:56.257Z,0
2017-12-22T03:37:36.687Z,0
2017-12-22T03:38:17.145Z,0
2017-12-22T03:38:57.709Z,0
2017-12-22T03:39:38.130Z,0
2017-12-22T03:40:18.523Z,0
2017-12-22T03:40:58.880Z,0
2017-12-22T03:41:39.392Z,0
2017-12-22T03:42:19.766Z,0
2017-12-22T03:43:00.242Z,0
2017-12-22T03:43:40.715Z,0
2017-12-22T03:44:21.064Z,0
2017-12-22T03:45:01.426Z,0
2017-12-22T03:45:41.836Z,0
2017-12-22T03:46:22.271Z,0
2017-12-22T03:47:03.197Z,0
2017-12-22T03:47:44.080Z,0
2017-12-22T03:48:24.480Z,0
2017-12-22T03:49:05.778Z,0
2017-12-22T03:49:47.282Z,0
2017-12-22T03:50:28.628Z,0
2017-12-22T03:51:10.689Z,0
2017-12-22T03:51:52.334Z,0
2017-12-22T03:52:33.550Z,0
2017-12-22T03:53:14.673Z,0
2017-12-22T04:45:11.019Z,0
2017-12-22T04:45:52.837Z,0
2017-12-22T04:46:33.260Z,0
2017-12-22T04:47:13.696Z,0
2017-12-22T04:47:54.072Z,0
2017-12-22T04:48:34.451Z,0
2017-12-22T04:49:14.838Z,0
2017-12-22T04:49:55.257Z,0
2017-12-22T04:50:35.720Z,0
2017-12-22T04:51:16.045Z,0
2017-12-22T04:51:56.496Z,0
2017-12-22T04:52:36.859Z,0
2017-12-22T04:53:17.241Z,0
2017-12-22T04:53:57.733Z,0
2017-12-22T04:54:41.041Z,0
2017-12-22T04:55:19.945Z,0
2017-12-22T04:56:01.695Z,0
2017-12-22T04:56:46.319Z,0
2017-12-22T04:57:29.160Z,0
2017-12-22T04:58:10.291Z,0
2017-12-22T04:58:51.388Z,0
2017-12-22T04:59:32.872Z,0
2017-12-22T05:00:14.185Z,0
2017-12-22T05:00:55.143Z,0
2017-12-22T05:01:36.077Z,0
2017-12-22T05:02:17.702Z,0
2017-12-22T05:02:58.355Z,0
2017-12-22T05:03:39.954Z,0
2017-12-22T05:04:20.479Z,0
2017-12-22T05:05:01.543Z,0
2017-12-22T05:05:42.104Z,0
2017-12-22T05:06:22.775Z,0
2017-12-22T05:07:03.245Z,0
2017-12-22T05:07:45.783Z,0
2017-12-22T05:08:25.676Z,0
2017-12-22T05:09:06.670Z,0
2017-12-22T05:09:48.189Z,0
2017-12-22T05:10:28.697Z,0
2017-12-22T05:11:09.519Z,0
2017-12-22T05:11:50.789Z,0
2017-12-22T05:12:31.274Z,0
2017-12-22T05:13:13.133Z,0
2017-12-22T05:13:53.505Z,0
2017-12-22T05:14:34.175Z,0
2017-12-22T05:15:14.931Z,0
2017-12-22T05:15:55.888Z,0
2017-12-22T05:16:36.892Z,0
2017-12-22T05:17:20.826Z,0
2017-12-22T05:18:01.318Z,0
2017-12-22T05:18:42.689Z,0
2017-12-22T05:19:25.899Z,0
2017-12-22T05:20:08.479Z,0
2017-12-22T05:20:48.202Z,0
2017-12-22T05:21:30.256Z,0
2017-12-22T05:22:11.151Z,0
2017-12-22T05:22:52.266Z,0
2017-12-22T05:23:33.592Z,0
2017-12-22T05:24:15.450Z,0
2017-12-22T05:24:56.292Z,0
2017-12-22T05:25:37.801Z,0
2017-12-22T05:26:18.840Z,0
2017-12-22T05:26:59.525Z,0
2017-12-22T05:27:40.284Z,0
2017-12-22T05:28:20.552Z,0
2017-12-22T05:29:01.819Z,0
2017-12-22T05:29:42.285Z,0
2017-12-22T05:30:22.812Z,0
2017-12-22T05:31:03.165Z,0
2017-12-22T05:31:44.218Z,0
2017-12-22T05:32:24.815Z,0
2017-12-22T05:33:05.120Z,0
2017-12-22T05:33:45.718Z,0
2017-12-22T05:34:25.941Z,0
2017-12-22T05:35:06.821Z,0
2017-12-22T05:35:47.803Z,0
2017-12-22T05:36:28.257Z,0
2017-12-22T05:37:09.211Z,0
2017-12-22T05:37:49.567Z,0
2017-12-22T05:38:30.357Z,0
2017-12-22T05:39:11.468Z,0
2017-12-22T05:39:52.165Z,0
2017-12-22T05:40:32.766Z,0
2017-12-22T05:41:13.149Z,0
2017-12-22T05:41:54.859Z,0
2017-12-22T05:42:35.585Z,0
2017-12-22T05:43:15.359Z,0
2017-12-22T05:43:57.049Z,0
2017-12-22T05:44:36.414Z,0
2017-12-22T05:45:16.825Z,0
2017-12-22T05:45:58.820Z,0
2017-12-22T05:46:47.137Z,0
2017-12-22T05:47:36.605Z,0
2017-12-22T05:48:21.696Z,0
2017-12-22T05:49:02.769Z,0
2017-12-22T05:49:44.424Z,0
2017-12-22T05:50:26.861Z,0
2017-12-22T05:51:58.994Z,0
2017-12-22T05:52:42.052Z,0
2017-12-22T05:53:22.764Z,0
2017-12-22T05:54:06.744Z,0
2017-12-22T05:54:46.626Z,0
2017-12-22T05:55:27.333Z,0
2017-12-22T05:56:12.300Z,0
2017-12-22T05:56:50.853Z,0
2017-12-22T05:57:31.995Z,0
2017-12-22T05:58:18.092Z,0
2017-12-22T05:59:00.999Z,0
2017-12-22T05:59:40.584Z,0
2017-12-22T06:00:21.474Z,0
2017-12-22T06:01:01.802Z,0
2017-12-22T06:01:42.451Z,0
2017-12-22T06:11:19.229Z,0
2017-12-22T06:13:44.638Z,0
2017-12-22T06:14:25.008Z,0
2017-12-22T06:15:05.460Z,0
2017-12-22T06:15:45.879Z,0
2017-12-22T06:16:26.368Z,0
2017-12-22T06:17:06.943Z,0
2017-12-22T06:17:48.682Z,0
2017-12-22T06:18:29.568Z,0
2017-12-22T06:19:10.576Z,0
2017-12-22T06:19:50.958Z,0
2017-12-22T06:23:02.807Z,0
2017-12-22T06:25:53.110Z,0
2017-12-22T06:26:47.391Z,0
2017-12-22T06:27:58.073Z,0
2017-12-22T06:28:51.043Z,0
2017-12-22T06:29:46.146Z,0
2017-12-22T06:30:42.279Z,0
2017-12-22T06:31:36.739Z,0
2017-12-22T06:32:29.726Z,0
2017-12-22T06:33:23.521Z,0
2017-12-22T06:34:15.913Z,0
2017-12-22T06:35:09.002Z,0
2017-12-22T06:36:14.253Z,0
2017-12-22T06:37:08.068Z,0
2017-12-22T06:38:03.079Z,0
2017-12-22T06:38:58.358Z,0
2017-12-22T06:39:54.938Z,0
2017-12-22T06:42:57.538Z,0
2017-12-22T06:43:50.991Z,0
2017-12-22T06:44:48.426Z,0
2017-12-22T06:49:58.284Z,0
2017-12-22T06:50:38.841Z,0
2017-12-22T06:51:19.364Z,0
2017-12-22T06:54:05.361Z,0
2017-12-22T06:55:00.379Z,0
2017-12-22T06:55:55.277Z,0
2017-12-22T06:56:51.057Z,0
2017-12-22T06:57:45.273Z,0
2017-12-22T06:58:42.965Z,0
2017-12-22T06:59:35.860Z,0
2017-12-22T07:00:29.456Z,0
2017-12-22T07:01:23.529Z,0
2017-12-22T07:02:17.209Z,0
2017-12-22T07:03:15.678Z,0
2017-12-22T07:04:07.098Z,0
2017-12-22T07:05:08.040Z,0
2017-12-22T07:06:02.462Z,0
2017-12-22T07:06:58.248Z,0
2017-12-22T07:07:57.188Z,0
2017-12-22T07:08:51.328Z,0
2017-12-22T07:09:50.614Z,0
2017-12-22T07:10:49.996Z,0
2017-12-22T07:11:51.417Z,0
2017-12-22T07:12:51.413Z,0
2017-12-22T07:13:49.305Z,0
2017-12-22T07:14:46.532Z,0
2017-12-22T07:15:47.627Z,0
2017-12-22T07:16:43.763Z,0
2017-12-22T07:17:45.516Z,0
2017-12-22T07:18:55.930Z,0
2017-12-22T07:19:50.583Z,0
2017-12-22T07:20:58.617Z,0
2017-12-22T07:21:58.933Z,0
2017-12-22T07:25:10.823Z,4
2017-12-22T07:26:06.736Z,0
2017-12-22T07:27:09.072Z,4
2017-12-22T07:28:04.530Z,0
2017-12-22T07:29:01.307Z,4
2017-12-22T07:29:59.021Z,4
2017-12-22T07:30:55.072Z,4
2017-12-22T07:31:58.842Z,4
2017-12-22T07:32:59.973Z,4
2017-12-22T07:34:04.617Z,8
2017-12-22T07:36:35.738Z,8
2017-12-22T07:37:30.049Z,8
2017-12-22T07:38:26.880Z,4
2017-12-22T07:39:20.233Z,8
2017-12-22T07:42:26.408Z,12
2017-12-22T07:43:22.445Z,16
2017-12-22T07:44:51.526Z,12
2017-12-22T07:45:57.469Z,16
2017-12-22T07:47:00.888Z,12
2017-12-22T07:47:58.155Z,12
2017-12-22T07:49:05.558Z,12
2017-12-22T07:50:00.829Z,16
2017-12-22T07:50:57.988Z,12
2017-12-22T07:51:57.391Z,16
2017-12-22T07:52:54.196Z,16
2017-12-22T07:55:25.173Z,20
2017-12-22T07:56:21.608Z,20
2017-12-22T07:59:46.299Z,32
2017-12-22T08:00:50.930Z,32
2017-12-22T08:01:59.549Z,32
2017-12-22T08:03:12.249Z,28
2017-12-22T08:04:10.488Z,28
2017-12-22T08:05:07.309Z,28
2017-12-22T08:06:08.114Z,28
2017-12-22T08:07:25.249Z,36
2017-12-22T08:08:35.057Z,32
2017-12-22T08:09:47.954Z,44
2017-12-22T08:10:43.764Z,40
2017-12-22T08:11:44.735Z,48
2017-12-22T08:12:42.050Z,56
2017-12-22T08:15:51.447Z,68
2017-12-22T08:20:34.806Z,68
2017-12-22T08:21:35.000Z,60
2017-12-22T08:22:31.357Z,56
2017-12-22T08:23:26.630Z,56
2017-12-22T08:24:20.242Z,60
2017-12-22T08:25:14.432Z,56
2017-12-22T08:26:14.334Z,56
2017-12-22T08:27:12.537Z,52
2017-12-22T08:28:09.422Z,56
2017-12-22T08:29:04.851Z,68
2017-12-22T08:30:04.659Z,68
2017-12-22T08:32:17.704Z,80
2017-12-22T08:33:11.385Z,76
2017-12-22T08:36:14.094Z,96
2017-12-22T08:37:09.382Z,92
2017-12-22T08:38:02.094Z,104
2017-12-22T08:38:59.804Z,96
2017-12-22T08:39:53.941Z,92
2017-12-22T08:40:52.369Z,84
2017-12-22T08:41:47.407Z,92
2017-12-22T08:42:41.222Z,84
2017-12-22T08:43:36.167Z,76
2017-12-22T08:44:35.441Z,76
2017-12-22T08:45:36.075Z,72
2017-12-22T08:46:34.986Z,64
2017-12-22T08:47:31.669Z,60
2017-12-22T08:48:27.118Z,56
2017-12-22T08:49:22.677Z,60
2017-12-22T08:50:18.627Z,56
2017-12-22T08:51:13.216Z,64
2017-12-22T08:52:13.471Z,64
2017-12-22T08:53:06.761Z,76
2017-12-22T08:54:05.698Z,84
2017-12-22T08:54:59.311Z,80
2017-12-22T08:56:01.343Z,88
2017-12-22T08:56:56.809Z,92
2017-12-22T08:57:52.985Z,96
2017-12-22T08:58:47.111Z,112
2017-12-22T08:59:40.168Z,112
2017-12-22T09:00:34.437Z,124
2017-12-22T09:01:31.771Z,124
2017-12-22T09:02:29.736Z,136
2017-12-22T09:03:24.172Z,140
2017-12-22T09:04:28.746Z,144
2017-12-22T09:05:27.447Z,176
2017-12-22T09:06:28.877Z,164
2017-12-22T09:07:56.020Z,180
2017-12-22T09:09:22.602Z,200
2017-12-22T09:13:09.283Z,196
2017-12-22T09:14:44.505Z,204
2017-12-22T09:15:42.905Z,180
2017-12-22T09:16:42.257Z,168
2017-12-22T09:18:36.532Z,176
2017-12-22T09:19:40.083Z,160
2017-12-22T09:20:39.535Z,148
2017-12-22T09:21:54.530Z,140
2017-12-22T09:22:56.474Z,132
2017-12-22T09:23:55.635Z,132
2017-12-22T09:24:52.203Z,124
2017-12-22T09:26:19.662Z,128
2017-12-22T09:27:22.134Z,136
2017-12-22T09:28:25.945Z,112
2017-12-22T09:29:25.191Z,116
2017-12-22T09:30:22.867Z,100
2017-12-22T09:31:23.918Z,96
2017-12-22T09:32:21.806Z,96
2017-12-22T09:33:20.691Z,92
2017-12-22T09:34:19.574Z,104
2017-12-22T09:35:27.628Z,104
2017-12-22T09:36:31.340Z,112
2017-12-22T09:40:14.149Z,124
2017-12-22T09:40:58.839Z,132
2017-12-22T09:48:51.172Z,280
2017-12-22T09:49:47.832Z,276
2017-12-22T09:50:48.462Z,312
2017-12-22T09:51:45.543Z,272
2017-12-22T09:52:43.294Z,268
2017-12-22T09:53:40.949Z,236
2017-12-22T09:54:38.605Z,240
2017-12-22T09:55:36.510Z,232
2017-12-22T09:56:36.980Z,244
2017-12-22T09:57:29.330Z,216
2017-12-22T09:58:11.985Z,224
2017-12-22T10:00:48.531Z,184
2017-12-22T10:01:45.773Z,152
2017-12-22T10:02:48.333Z,148
2017-12-22T10:42:04.434Z,304
2017-12-22T10:46:20.068Z,292
2017-12-22T10:52:18.886Z,232
2017-12-22T10:59:43.550Z,252
2017-12-22T11:04:26.228Z,224
2017-12-22T11:05:21.506Z,208
2017-12-22T11:06:22.081Z,196
2017-12-22T11:07:29.683Z,184
2017-12-22T11:08:30.511Z,196
2017-12-22T11:21:14.223Z,308
2017-12-22T11:22:14.240Z,284
2017-12-22T11:23:09.417Z,276
2017-12-22T11:24:04.364Z,212
2017-12-22T11:25:05.186Z,212
2017-12-22T11:25:59.992Z,204
2017-12-22T11:27:00.026Z,176
2017-12-22T11:28:02.689Z,148
2017-12-22T11:29:02.268Z,132
2017-12-22T11:30:10.781Z,160
2017-12-22T11:36:02.196Z,204
2017-12-22T11:37:04.925Z,232
2017-12-22T11:38:09.129Z,252
2017-12-22T11:39:19.068Z,232
2017-12-22T11:40:17.619Z,260
2017-12-22T11:41:25.260Z,248
2017-12-22T11:42:27.082Z,244
2017-12-22T11:43:26.055Z,244
2017-12-22T11:44:30.708Z,248
2017-12-22T11:45:36.939Z,224
2017-12-22T11:46:38.255Z,176
2017-12-22T11:47:35.714Z,176
2017-12-22T11:48:41.305Z,160
2017-12-22T11:49:46.047Z,160
2017-12-22T11:50:49.062Z,164
2017-12-22T11:51:57.861Z,176
2017-12-22T11:53:16.644Z,200
2017-12-22T11:56:09.654Z,200
2017-12-22T11:57:10.178Z,192
2017-12-22T11:58:11.915Z,204
2017-12-22T11:59:10.359Z,220
2017-12-22T12:00:11.934Z,228
2017-12-22T12:01:13.249Z,288
2017-12-22T12:02:11.496Z,248
2017-12-22T12:03:12.241Z,236
2017-12-22T12:04:11.929Z,268
2017-12-22T12:05:08.700Z,276
2017-12-22T12:06:10.418Z,248
2017-12-22T12:07:09.692Z,228
2017-12-22T12:08:10.007Z,240
2017-12-22T12:09:07.452Z,208
2017-12-22T12:10:05.992Z,252
2017-12-22T12:11:05.591Z,280
2017-12-22T12:12:04.559Z,312
2017-12-22T12:13:04.098Z,380
2017-12-22T12:14:02.835Z,320
2017-12-22T12:15:02.947Z,372
2017-12-22T12:15:57.626Z,364
2017-12-22T12:16:55.805Z,384
2017-12-22T12:17:51.421Z,436
2017-12-22T12:18:47.895Z,368
2017-12-22T12:19:44.575Z,312
2017-12-22T12:20:41.678Z,320
2017-12-22T12:21:38.255Z,328
2017-12-22T12:22:35.282Z,352
2017-12-22T12:23:32.789Z,320
2017-12-22T12:24:31.291Z,304
2017-12-22T12:25:27.223Z,232
2017-12-22T12:27:53.940Z,228
2017-12-22T12:28:36.566Z,248
2017-12-22T12:31:12.310Z,224
2017-12-22T12:32:00.658Z,232
2017-12-22T12:32:54.860Z,260
2017-12-22T12:33:39.669Z,300
2017-12-22T12:39:03.547Z,316
2017-12-22T12:40:07.090Z,360
2017-12-22T12:41:11.283Z,340
2017-12-22T12:42:12.971Z,316
2017-12-22T12:43:15.520Z,328
2017-12-22T12:44:17.340Z,336
2017-12-22T12:45:24.854Z,364
2017-12-22T12:46:26.302Z,332
2017-12-22T12:47:30.415Z,276
2017-12-22T12:48:29.792Z,280
2017-12-22T12:49:33.912Z,192
2017-12-22T12:50:32.530Z,204
2017-12-22T12:51:34.734Z,208
2017-12-22T12:52:37.098Z,208
2017-12-22T12:53:36.956Z,228
2017-12-22T12:54:37.103Z,220
2017-12-22T12:55:38.596Z,184
2017-12-22T12:56:37.315Z,156
2017-12-22T12:57:34.948Z,156
2017-12-22T12:58:40.401Z,192
2017-12-22T12:59:41.635Z,192
2017-12-22T13:00:43.572Z,164
2017-12-22T13:01:41.386Z,164
2017-12-22T13:02:41.433Z,152
2017-12-22T13:03:41.070Z,148
2017-12-22T13:04:42.164Z,148
2017-12-22T13:05:42.549Z,164
2017-12-22T13:06:42.118Z,168
2017-12-22T13:07:42.477Z,176
2017-12-22T13:08:37.401Z,160
2017-12-22T13:09:34.611Z,140
2017-12-22T13:10:33.882Z,144
2017-12-22T13:11:31.720Z,132
2017-12-22T13:12:29.922Z,132
2017-12-22T13:13:29.354Z,132
2017-12-22T13:14:29.192Z,128
2017-12-22T13:15:29.014Z,144
2017-12-22T13:16:27.952Z,152
2017-12-22T13:17:27.797Z,168
2017-12-22T13:18:24.755Z,176
2017-12-22T13:19:20.580Z,220
2017-12-22T13:20:19.493Z,188
2017-12-22T13:21:14.483Z,192
2017-12-22T13:22:12.734Z,188
2017-12-22T13:23:12.531Z,164
2017-12-22T13:24:10.581Z,164
2017-12-22T13:25:08.878Z,168
2017-12-22T13:26:08.204Z,180
2017-12-22T13:27:06.903Z,160
2017-12-22T13:28:02.106Z,144
2017-12-22T13:29:01.403Z,148
2017-12-22T13:29:59.671Z,164
2017-12-22T13:30:59.445Z,116
2017-12-22T13:31:58.302Z,104
2017-12-22T13:32:53.710Z,100
2017-12-22T13:33:51.149Z,120
2017-12-22T13:34:34.828Z,116
2017-12-22T13:35:17.558Z,132
2017-12-22T13:35:58.759Z,160
2017-12-22T13:36:40.542Z,148
2017-12-22T13:37:35.749Z,160
2017-12-22T13:38:20.850Z,180
2017-12-22T13:39:03.794Z,172
2017-12-22T13:40:00.835Z,164
2017-12-22T13:40:41.742Z,200
2017-12-22T13:41:23.922Z,180
2017-12-22T13:42:05.411Z,160
2017-12-22T13:42:51.360Z,152
2017-12-22T13:43:31.068Z,140
2017-12-22T13:44:17.975Z,124
2017-12-22T13:45:00.018Z,124
2017-12-22T13:45:41.054Z,124
2017-12-22T13:46:21.820Z,112
2017-12-22T13:47:05.572Z,100
2017-12-22T13:47:47.869Z,104
2017-12-22T13:48:30.118Z,108
2017-12-22T13:49:15.395Z,128
2017-12-22T13:49:56.930Z,124
2017-12-22T13:50:40.438Z,120
2017-12-22T13:51:23.009Z,124
2017-12-22T13:52:12.064Z,112
2017-12-22T13:52:55.642Z,116
2017-12-22T13:53:40.349Z,136
2017-12-22T13:54:22.562Z,128
2017-12-22T13:55:14.065Z,128
2017-12-22T13:55:57.063Z,140
2017-12-22T13:56:39.914Z,136
2017-12-22T13:57:31.200Z,120
2017-12-22T13:58:14.563Z,100
2017-12-22T13:58:57.068Z,100
2017-12-22T13:59:51.902Z,108
2017-12-22T14:00:51.764Z,108
2017-12-22T14:01:57.919Z,112
2017-12-22T14:02:55.289Z,104
2017-12-22T14:03:40.174Z,108
2017-12-22T14:04:24.274Z,116
2017-12-22T14:05:05.608Z,96
2017-12-22T14:05:46.625Z,96
2017-12-22T14:06:27.449Z,100
2017-12-22T14:07:10.565Z,100
2017-12-22T14:07:55.243Z,96
2017-12-22T14:08:50.660Z,108
2017-12-22T14:09:33.567Z,108
2017-12-22T14:10:12.431Z,124
2017-12-22T14:11:00.497Z,120
2017-12-22T14:11:46.553Z,92
2017-12-22T14:12:28.068Z,92
2017-12-22T14:13:08.590Z,104
2017-12-22T14:13:52.842Z,100
2017-12-22T14:14:37.125Z,100
2017-12-22T14:15:25.880Z,104
2017-12-22T14:16:18.069Z,116
2017-12-22T14:17:05.571Z,116
2017-12-22T14:17:48.590Z,112
2017-12-22T14:18:34.196Z,112
2017-12-22T14:19:14.265Z,112
2017-12-22T14:19:57.102Z,128
2017-12-22T14:20:41.190Z,112
2017-12-22T14:21:29.089Z,124
2017-12-22T14:22:12.569Z,140
2017-12-22T14:22:53.356Z,140
2017-12-22T14:23:34.916Z,124
2017-12-22T14:24:31.575Z,116
2017-12-22T14:25:13.567Z,112
2017-12-22T14:25:56.488Z,124
2017-12-22T14:26:40.580Z,116
2017-12-22T14:27:23.497Z,108
2017-12-22T14:28:07.074Z,100
2017-12-22T14:28:52.320Z,100
2017-12-22T14:29:35.698Z,92
2017-12-22T14:30:31.299Z,88
2017-12-22T14:31:20.232Z,84
2017-12-22T14:32:00.481Z,84
2017-12-22T14:32:43.463Z,88
2017-12-22T14:33:25.322Z,88
2017-12-22T14:34:07.575Z,76
2017-12-22T14:34:49.408Z,68
2017-12-22T14:35:31.114Z,68
2017-12-22T14:36:12.674Z,72
2017-12-22T14:36:54.730Z,68
2017-12-22T14:37:37.458Z,84
2017-12-22T14:38:19.351Z,72
2017-12-22T14:39:02.313Z,72
2017-12-22T14:39:42.927Z,64
2017-12-22T14:40:25.075Z,64
2017-12-22T14:41:06.761Z,64
2017-12-22T14:41:49.902Z,64
2017-12-22T14:42:34.576Z,68
2017-12-22T14:43:17.077Z,64
2017-12-22T14:44:01.077Z,68
2017-12-22T14:44:41.303Z,64
2017-12-22T14:45:24.128Z,64
2017-12-22T14:46:05.573Z,72
2017-12-22T14:46:50.578Z,64
2017-12-22T14:47:33.344Z,64
2017-12-22T14:48:14.716Z,64
2017-12-22T14:48:58.257Z,64
2017-12-22T14:49:41.080Z,64
2017-12-22T14:50:21.779Z,60
2017-12-22T14:51:03.543Z,56
2017-12-22T14:51:48.737Z,60
2017-12-22T14:52:34.204Z,52
2017-12-22T14:53:16.466Z,52
2017-12-22T14:53:57.889Z,56
2017-12-22T14:54:42.143Z,44
2017-12-22T14:55:28.458Z,44
2017-12-22T14:56:13.082Z,40
2017-12-22T14:56:53.797Z,40
2017-12-22T14:57:36.968Z,40
2017-12-22T14:58:19.909Z,36
2017-12-22T14:59:03.928Z,32
2017-12-22T14:59:46.082Z,32
2017-12-22T15:00:27.265Z,28
2017-12-22T15:01:16.670Z,28
2017-12-22T15:02:05.213Z,28
2017-12-22T15:02:47.661Z,24
2017-12-22T15:03:27.655Z,24
2017-12-22T15:04:10.186Z,24
2017-12-22T15:04:51.356Z,24
2017-12-22T15:05:32.868Z,20
2017-12-22T15:06:14.280Z,24
2017-12-22T15:06:55.889Z,24
2017-12-22T15:07:40.394Z,20
2017-12-22T15:08:27.930Z,20
2017-12-22T15:09:09.085Z,20
2017-12-22T15:09:49.249Z,20
2017-12-22T15:10:30.544Z,16
2017-12-22T15:11:13.979Z,16
2017-12-22T15:11:55.847Z,16
2017-12-22T15:12:37.835Z,12
2017-12-22T15:13:20.038Z,12
2017-12-22T15:14:01.432Z,16
2017-12-22T15:14:42.661Z,12
2017-12-22T15:15:23.926Z,12
2017-12-22T15:16:04.495Z,12
2017-12-22T15:16:45.915Z,12
2017-12-22T15:17:30.088Z,8
2017-12-22T15:18:13.230Z,8
2017-12-22T15:18:56.010Z,12
2017-12-22T15:19:37.778Z,12
2017-12-22T15:20:21.108Z,8
2017-12-22T15:21:02.314Z,8
2017-12-22T15:21:46.394Z,8
2017-12-22T15:22:30.976Z,8
2017-12-22T15:23:12.206Z,8
2017-12-22T15:23:52.692Z,4
2017-12-22T15:24:34.367Z,8
2017-12-22T15:25:14.961Z,8
2017-12-22T15:25:57.891Z,4
2017-12-22T15:26:41.923Z,4
2017-12-22T15:27:29.267Z,4
2017-12-22T15:28:10.909Z,4
2017-12-22T15:28:53.135Z,4
2017-12-22T15:29:37.745Z,4
2017-12-22T15:30:25.091Z,4
2017-12-22T15:31:05.196Z,4
2017-12-22T15:33:37.050Z,4
2017-12-22T15:34:33.303Z,4
2017-12-22T15:35:27.957Z,4
2017-12-22T15:36:27.232Z,4
2017-12-22T15:37:22.169Z,4
2017-12-22T15:38:19.113Z,4
2017-12-22T15:39:15.527Z,4
2017-12-22T15:40:10.923Z,0
2017-12-22T15:41:07.881Z,0
2017-12-22T15:42:07.184Z,0
2017-12-22T15:43:06.212Z,0
2017-12-22T15:44:03.713Z,0
2017-12-22T15:45:00.597Z,4
2017-12-22T15:46:00.210Z,4
2017-12-22T15:46:57.731Z,0
2017-12-22T15:47:55.357Z,0
2017-12-22T15:48:52.803Z,0
2017-12-22T15:49:51.404Z,0
2017-12-22T15:50:47.395Z,0
2017-12-22T15:51:45.809Z,0
2017-12-22T15:52:43.402Z,0
2017-12-22T15:53:39.193Z,0
2017-12-22T15:54:37.779Z,0
2017-12-22T15:55:33.580Z,0
2017-12-22T15:56:29.788Z,0
2017-12-22T15:57:26.803Z,0
2017-12-22T15:58:21.604Z,0
2017-12-22T15:59:19.954Z,0
2017-12-22T16:00:19.573Z,0
2017-12-22T16:02:55.456Z,0
2017-12-22T16:43:39.638Z,0
2017-12-22T16:44:28.381Z,0
2017-12-22T16:45:15.312Z,0
2017-12-22T16:46:03.707Z,0
2017-12-22T16:46:48.032Z,0
2017-12-22T16:47:31.071Z,0
2017-12-22T16:48:11.185Z,0
2017-12-22T16:48:52.133Z,0
2017-12-22T16:49:33.676Z,0
2017-12-22T16:50:17.249Z,0
2017-12-22T16:50:59.753Z,0
2017-12-22T16:51:46.286Z,0
2017-12-22T16:52:36.022Z,0
2017-12-22T16:53:19.360Z,0
2017-12-22T16:54:01.705Z,0
2017-12-22T16:54:44.016Z,0
2017-12-22T16:55:24.609Z,0
2017-12-22T16:59:48.015Z,0
2017-12-22T17:00:34.535Z,0
2017-12-22T17:01:16.106Z,0
2017-12-22T17:02:02.540Z,0
2017-12-22T17:04:38.993Z,0
2017-12-22T17:05:34.128Z,0
2017-12-22T17:08:31.335Z,0
2017-12-22T17:10:51.818Z,0
2017-12-22T17:11:39.333Z,0
2017-12-22T17:12:20.974Z,0
2017-12-22T17:13:01.275Z,0
2017-12-22T17:13:42.255Z,0
2017-12-22T17:14:22.794Z,0
2017-12-22T17:15:05.058Z,0
2017-12-22T17:15:49.204Z,0
2017-12-22T17:16:29.994Z,0
2017-12-22T17:17:11.041Z,0
2017-12-22T17:17:51.405Z,0
2017-12-22T17:20:19.903Z,0
2017-12-22T17:21:08.447Z,0
2017-12-22T17:21:58.533Z,0
2017-12-22T17:24:01.190Z,0
2017-12-22T17:24:50.016Z,0
2017-12-22T17:25:38.082Z,0
2017-12-22T17:26:27.267Z,0
2017-12-22T17:27:15.090Z,0
2017-12-22T17:28:04.330Z,0
2017-12-22T17:28:49.333Z,0
2017-12-22T17:29:37.011Z,0
2017-12-22T17:30:23.757Z,0
2017-12-22T17:31:03.492Z,0
2017-12-22T17:31:44.619Z,0
2017-12-22T17:32:25.043Z,0
2017-12-22T17:33:05.350Z,0
2017-12-22T17:33:46.809Z,0
2017-12-22T17:41:12.847Z,0
2017-12-22T17:42:03.378Z,0
2017-12-22T17:42:54.220Z,0
2017-12-22T17:43:46.304Z,0
2017-12-22T17:44:34.780Z,0
2017-12-22T17:45:23.005Z,0
2017-12-22T17:46:12.755Z,0
2017-12-22T17:47:00.029Z,0
2017-12-22T17:47:44.691Z,0
2017-12-22T17:48:30.093Z,0
2017-12-22T17:50:33.963Z,0
2017-12-22T17:53:00.441Z,0
2017-12-22T17:55:04.093Z,0
2017-12-22T17:55:54.716Z,0
2017-12-22T17:56:43.350Z,0
2017-12-22T18:00:58.334Z,0
2017-12-22T18:01:45.508Z,0
2017-12-22T18:02:34.931Z,0
2017-12-22T18:03:28.182Z,0
2017-12-22T18:04:09.186Z,0
2017-12-22T18:04:49.865Z,0
2017-12-22T18:05:32.243Z,0
2017-12-22T18:06:18.717Z,0
2017-12-22T18:06:59.064Z,0
2017-12-22T18:07:39.649Z,0
2017-12-22T18:08:20.190Z,0
2017-12-22T18:09:00.812Z,0
2017-12-22T18:09:41.314Z,0
2017-12-22T18:10:21.660Z,0
2017-12-22T18:11:02.667Z,0
2017-12-22T18:11:43.080Z,0
2017-12-22T18:12:24.701Z,0
2017-12-22T18:13:05.449Z,0
2017-12-22T18:13:45.838Z,0
2017-12-22T18:14:26.859Z,0
2017-12-22T18:15:07.630Z,0
2017-12-22T18:15:48.056Z,0
2017-12-22T18:16:28.429Z,0
2017-12-22T18:17:08.903Z,0
2017-12-22T18:17:49.489Z,0
2017-12-22T18:18:33.208Z,0